Terminal Aerodrome Forecast
Issued by NWS Jackson, MS

Home | Current Version | Previous Version | Text Only | Print | Product List | Glossary On
Versions: 1 2 3 4 5 6 7 8 9 10 11 12
000
FTUS44 KJAN 311700
TAFMEI
TAF
KMEI 311737Z 3118/0118 00000KT P6SM VCSH SCT100 SCT110
     FM010000 02003KT P6SM OVC100
     FM010800 00000KT 5SM BR SCT015 OVC080
     FM011300 35004KT P6SM OVC250=

USA.gov is the U.S. government's official web portal to all federal, state and local government web resources and services.